createdAt,value
2018-05-24T08:45:56.010Z,17.35
2018-05-24T08:48:23.836Z,12.70
2018-05-24T08:50:51.389Z,13.73
2018-05-24T08:53:27.193Z,13.63
2018-05-24T08:55:54.793Z,10.80
2018-05-24T08:58:22.471Z,14.23
2018-05-24T09:00:50.100Z,8.73
2018-05-24T09:03:17.716Z,12.30
2018-05-24T09:05:45.307Z,15.63
2018-05-24T09:08:12.909Z,9.60
2018-05-24T09:10:40.484Z,13.07
2018-05-24T09:13:17.445Z,11.50
2018-05-24T09:15:45.052Z,12.60
2018-05-24T09:18:12.648Z,13.33
2018-05-24T09:20:40.213Z,11.87
2018-05-24T09:23:08.792Z,9.83
2018-05-24T09:25:36.494Z,12.43
2018-05-24T09:28:04.099Z,12.43
2018-05-24T09:30:31.692Z,14.60
2018-05-24T09:33:17.159Z,15.03
2018-05-24T09:35:44.753Z,15.00
2018-05-24T09:38:12.372Z,12.60
2018-05-24T09:40:39.980Z,10.77
2018-05-24T09:43:08.528Z,26.07
2018-05-24T09:45:36.864Z,18.33
2018-05-24T09:48:04.478Z,9.90
2018-05-24T09:50:32.828Z,18.57
2018-05-24T09:53:00.455Z,12.73
2018-05-24T09:55:28.118Z,19.90
2018-05-24T09:57:56.490Z,40.77
2018-05-24T10:00:24.134Z,20.70
2018-05-24T10:02:51.712Z,14.70
2018-05-24T10:05:34.735Z,11.73
2018-05-24T10:08:02.432Z,11.10
2018-05-24T10:10:30.133Z,12.57
2018-05-24T10:12:57.709Z,10.40
2018-05-24T10:15:35.193Z,9.17
2018-05-24T10:18:02.828Z,10.07
2018-05-24T10:20:30.399Z,10.53
2018-05-24T10:22:57.995Z,8.87
2018-05-24T10:25:33.418Z,10.60
2018-05-24T10:28:01.101Z,10.77
2018-05-24T10:30:28.665Z,17.53
2018-05-24T10:32:56.274Z,16.80
2018-05-24T10:35:27.635Z,12.60
2018-05-24T10:37:55.211Z,17.43
2018-05-24T10:40:22.829Z,19.03
2018-05-24T10:42:50.529Z,17.00
2018-05-24T10:45:39.558Z,21.27
2018-05-24T10:48:07.176Z,19.00
2018-05-24T10:50:34.771Z,14.27
2018-05-24T10:53:02.377Z,16.40
2018-05-24T10:55:31.090Z,15.37
2018-05-24T10:57:59.457Z,23.60
2018-05-24T11:00:27.069Z,15.00
2018-05-24T11:02:54.850Z,16.83
2018-05-24T11:05:31.373Z,13.53
2018-05-24T11:07:59.729Z,19.63
2018-05-24T11:10:27.334Z,16.63
2018-05-24T11:12:54.950Z,19.67
2018-05-24T11:15:23.640Z,12.60
2018-05-24T11:17:51.236Z,28.33
2018-05-24T11:20:18.859Z,16.93
2018-05-24T11:22:46.443Z,18.63
2018-05-24T11:25:14.082Z,12.40
2018-05-24T11:27:41.669Z,31.47
2018-05-24T11:30:09.339Z,11.47
2018-05-24T11:32:36.928Z,30.23
2018-05-24T11:35:05.543Z,22.43
2018-05-24T11:37:33.914Z,19.80
2018-05-24T11:40:01.512Z,25.20
2018-05-24T11:42:29.115Z,12.27
2018-05-24T11:45:04.542Z,23.47
2018-05-24T11:47:32.751Z,19.73
2018-05-24T11:50:00.600Z,11.03
2018-05-24T11:52:28.257Z,18.80
2018-05-24T11:55:26.954Z,22.20
2018-05-24T11:57:54.720Z,15.13
2018-05-24T12:00:22.288Z,13.57
2018-05-24T12:02:50.728Z,14.93
2018-05-24T12:05:25.540Z,19.03
2018-05-24T12:07:53.132Z,14.03
2018-05-24T12:10:20.735Z,12.80
2018-05-24T12:12:48.525Z,14.40
2018-05-24T12:15:23.288Z,12.07
2018-05-24T12:17:50.930Z,20.03
2018-05-24T12:20:18.528Z,19.30
2018-05-24T12:22:46.896Z,23.93
2018-05-24T12:25:57.690Z,20.50
2018-05-24T12:28:25.313Z,13.40
2018-05-24T12:30:52.878Z,17.43
2018-05-24T12:33:21.259Z,14.50
2018-05-24T12:35:49.735Z,20.00
2018-05-24T12:38:17.355Z,20.90
2018-05-24T12:40:44.938Z,19.07
2018-05-24T12:43:12.570Z,12.90
2018-05-24T12:45:41.265Z,16.83
2018-05-24T12:48:08.843Z,19.53
2018-05-24T12:50:36.448Z,16.03
2018-05-24T12:53:04.064Z,14.77
2018-05-24T12:55:37.560Z,24.53
2018-05-24T12:58:05.183Z,25.33
2018-05-24T13:00:32.799Z,14.57
2018-05-24T13:03:01.189Z,15.67
2018-05-24T13:05:44.434Z,19.83
2018-05-24T13:08:12.031Z,35.43
2018-05-24T13:10:39.613Z,21.63
2018-05-24T13:13:07.191Z,46.17
2018-05-24T13:15:37.691Z,16.43
2018-05-24T13:18:05.714Z,16.53
2018-05-24T13:20:33.399Z,15.57
2018-05-24T13:23:01.037Z,14.10
2018-05-24T13:25:41.720Z,14.77
2018-05-24T13:28:09.423Z,18.60
2018-05-24T13:30:37.781Z,20.73
2018-05-24T13:33:05.458Z,23.80
2018-05-24T13:35:41.656Z,18.23
2018-05-24T13:38:09.520Z,17.93
2018-05-24T13:40:37.132Z,13.97
2018-05-24T13:43:05.610Z,16.30
2018-05-24T13:45:37.088Z,18.00
2018-05-24T13:48:11.302Z,17.77
2018-05-24T13:50:39.692Z,17.67
2018-05-24T13:53:07.321Z,18.70
2018-05-24T13:55:38.592Z,16.03
2018-05-24T13:58:06.296Z,18.37
2018-05-24T14:00:33.862Z,16.07
2018-05-24T14:03:01.531Z,18.93
2018-05-24T14:05:48.833Z,21.83
2018-05-24T14:08:16.442Z,17.63
2018-05-24T14:10:44.786Z,22.33
2018-05-24T14:13:12.422Z,16.53
2018-05-24T14:15:58.405Z,26.47
2018-05-24T14:18:26.028Z,17.13
2018-05-24T14:20:53.691Z,23.53
2018-05-24T14:23:22.059Z,24.83
2018-05-24T14:26:02.498Z,17.87
2018-05-24T14:28:30.122Z,16.87
2018-05-24T14:30:57.717Z,17.40
2018-05-24T14:33:25.391Z,18.60
2018-05-24T14:35:55.865Z,18.50
2018-05-24T14:38:24.062Z,20.17
2018-05-24T14:40:51.708Z,19.00
2018-05-24T14:43:19.317Z,23.83
2018-05-24T14:45:47.656Z,18.33
2018-05-24T14:48:15.357Z,20.97
2018-05-24T14:50:44.606Z,21.57
2018-05-24T14:53:12.237Z,22.87
2018-05-24T14:55:39.836Z,18.23
2018-05-24T14:58:07.557Z,20.23
2018-05-24T15:00:35.153Z,33.90
2018-05-24T15:03:02.731Z,23.90
2018-05-24T15:05:30.376Z,23.07
2018-05-24T15:08:08.076Z,27.63
2018-05-24T15:10:35.776Z,23.40
2018-05-24T15:13:03.404Z,19.77
2018-05-24T15:15:31.004Z,21.90
2018-05-24T15:17:59.553Z,21.03
2018-05-24T15:20:27.157Z,22.57
2018-05-24T15:22:54.765Z,19.97
2018-05-24T15:25:22.462Z,19.63
2018-05-24T15:28:03.241Z,22.20
2018-05-24T15:30:30.905Z,21.00
2018-05-24T15:32:59.310Z,25.13
2018-05-24T15:35:26.999Z,19.23
2018-05-24T15:37:56.327Z,27.97
2018-05-24T15:40:23.939Z,22.30
2018-05-24T15:42:51.538Z,23.33
2018-05-24T15:45:19.175Z,20.60
2018-05-24T15:47:46.865Z,28.03
2018-05-24T15:50:14.455Z,17.37
2018-05-24T15:52:42.021Z,45.57
2018-05-24T15:55:09.665Z,20.37
2018-05-24T15:57:41.702Z,22.63
2018-05-24T16:00:10.157Z,17.53
2018-05-24T16:02:37.733Z,20.43
2018-05-24T16:05:06.105Z,17.63
2018-05-24T16:07:34.589Z,21.07
2018-05-24T16:10:02.965Z,26.40
2018-05-24T16:12:30.566Z,17.80
2018-05-24T16:14:58.192Z,15.93
2018-05-24T16:17:39.320Z,20.60
2018-05-24T16:20:06.965Z,20.43
2018-05-24T16:22:34.608Z,17.47
2018-05-24T16:25:02.197Z,16.77
2018-05-24T16:27:38.565Z,18.20
2018-05-24T16:30:06.217Z,21.70
2018-05-24T16:32:33.867Z,23.23
2018-05-24T16:35:01.458Z,21.63
2018-05-24T16:37:36.695Z,15.13
2018-05-24T16:40:04.337Z,20.53
2018-05-24T16:42:31.914Z,15.53
2018-05-24T16:44:59.603Z,14.50
2018-05-24T16:47:28.019Z,15.77
2018-05-24T16:49:55.638Z,18.87
2018-05-24T16:52:23.988Z,16.77
2018-05-24T16:54:51.677Z,16.33
2018-05-24T16:57:20.016Z,22.17
2018-05-24T16:59:47.680Z,20.23
2018-05-24T17:02:15.227Z,21.10
2018-05-24T17:04:42.844Z,28.47
2018-05-24T17:07:10.536Z,26.80
2018-05-24T17:09:38.166Z,17.80
2018-05-24T17:12:05.768Z,21.03
2018-05-24T17:14:33.613Z,16.20
2018-05-24T17:17:01.187Z,21.10
2018-05-24T17:19:28.828Z,18.23
2018-05-24T17:21:56.410Z,17.17
2018-05-24T17:24:24.040Z,16.60
2018-05-24T17:26:51.641Z,19.73
2018-05-24T17:29:19.266Z,16.20
2018-05-24T17:31:46.933Z,17.43
2018-05-24T17:34:14.528Z,18.20
2018-05-24T17:36:42.153Z,20.57
2018-05-24T17:39:09.811Z,16.40
2018-05-24T17:41:37.390Z,20.50
2018-05-24T17:44:05.116Z,17.87
2018-05-24T17:46:32.718Z,20.73
2018-05-24T17:49:00.348Z,20.80
2018-05-24T17:51:27.926Z,18.00
2018-05-24T17:53:55.574Z,17.87
2018-05-24T17:56:23.174Z,21.60
2018-05-24T17:58:50.811Z,20.23
2018-05-24T18:01:19.200Z,20.30
2018-05-24T18:03:46.850Z,18.90
2018-05-24T18:06:14.516Z,22.07
2018-05-24T18:08:42.899Z,26.00
2018-05-24T18:11:10.576Z,27.07
2018-05-24T18:13:38.953Z,21.90
2018-05-24T18:16:07.352Z,19.70
2018-05-24T18:18:35.860Z,21.23
2018-05-24T18:21:03.481Z,25.20
2018-05-24T18:23:31.334Z,21.17
2018-05-24T18:25:59.700Z,20.17
2018-05-24T18:28:27.294Z,21.67
2018-05-24T18:30:54.947Z,18.67
2018-05-24T18:33:22.543Z,21.73
2018-05-24T18:35:50.158Z,17.37
2018-05-24T18:38:18.580Z,20.47
2018-05-24T18:40:46.212Z,22.70
2018-05-24T18:43:13.841Z,20.40
2018-05-24T18:45:42.208Z,18.20
2018-05-24T18:48:10.600Z,22.40
2018-05-24T18:50:39.133Z,26.23
2018-05-24T18:53:06.753Z,21.70
2018-05-24T18:55:34.360Z,23.07
2018-05-24T18:58:01.968Z,20.90
2018-05-24T19:00:29.652Z,36.03
2018-05-24T19:02:57.319Z,23.30
2018-05-24T19:05:25.012Z,20.17
2018-05-24T19:07:52.664Z,27.10
2018-05-24T19:10:20.400Z,21.53
2018-05-24T19:12:48.053Z,20.23
2018-05-24T19:15:15.676Z,21.30
2018-05-24T19:17:43.264Z,21.93
2018-05-24T19:20:10.882Z,24.57
2018-05-24T19:22:38.552Z,22.33
2018-05-24T19:25:06.321Z,20.37
2018-05-24T19:27:34.719Z,21.83
2018-05-24T19:30:02.341Z,19.00
2018-05-24T19:32:29.976Z,17.27
2018-05-24T19:34:57.598Z,18.00
2018-05-24T19:37:25.176Z,23.63
2018-05-24T19:39:52.884Z,20.47
2018-05-24T19:42:20.494Z,18.77
2018-05-24T19:44:48.107Z,27.67
2018-05-24T19:47:15.700Z,27.33
2018-05-24T19:49:43.335Z,20.67
2018-05-24T19:52:11.737Z,19.30
2018-05-24T19:54:39.301Z,28.27
2018-05-24T19:57:06.932Z,22.07
2018-05-24T19:59:35.166Z,18.03
2018-05-24T20:02:02.760Z,27.13
2018-05-24T20:04:30.408Z,20.73
2018-05-24T20:06:58.079Z,23.07
2018-05-24T20:09:26.381Z,21.73
2018-05-24T20:11:54.026Z,18.17
2018-05-24T20:14:22.504Z,23.07
2018-05-24T20:16:50.859Z,24.30
2018-05-24T20:19:18.541Z,22.13
2018-05-24T20:21:46.961Z,20.17
2018-05-24T20:24:14.603Z,28.33
2018-05-24T20:26:42.218Z,26.67
2018-05-24T20:29:09.846Z,24.23
2018-05-24T20:31:37.472Z,21.37
2018-05-24T20:34:05.097Z,22.47
2018-05-24T20:36:32.740Z,21.57
2018-05-24T20:39:00.383Z,26.93
2018-05-24T20:41:27.991Z,24.00
2018-05-24T20:43:55.576Z,22.50
2018-05-24T20:46:23.246Z,22.20
2018-05-24T20:48:50.884Z,26.10
2018-05-24T20:51:18.538Z,27.87
2018-05-24T20:53:46.416Z,29.93
2018-05-24T20:56:14.110Z,24.93
2018-05-24T20:58:41.708Z,25.83
2018-05-24T21:01:09.381Z,27.47
2018-05-24T21:03:37.784Z,28.40
2018-05-24T21:06:05.404Z,34.63
2018-05-24T21:08:32.985Z,25.73
2018-05-24T21:11:00.676Z,35.27
2018-05-24T21:13:28.281Z,28.33
2018-05-24T21:15:55.944Z,28.43
2018-05-24T21:18:23.504Z,34.40
2018-05-24T21:20:51.140Z,27.27
2018-05-24T21:23:19.701Z,28.80
2018-05-24T21:25:47.350Z,36.77
2018-05-24T21:28:14.952Z,38.83
2018-05-24T21:30:42.631Z,32.00
2018-05-24T21:33:11.038Z,41.23
2018-05-24T21:35:39.425Z,33.70
2018-05-24T21:38:07.037Z,33.20
2018-05-24T21:40:34.608Z,35.30
2018-05-24T21:43:02.983Z,48.13
2018-05-24T21:45:30.641Z,48.43
2018-05-24T21:47:59.060Z,37.17
2018-05-24T21:50:26.732Z,37.40
2018-05-24T21:52:54.384Z,45.90
2018-05-24T21:55:22.000Z,38.47
2018-05-24T21:57:50.434Z,43.50
2018-05-24T22:00:18.090Z,50.47
2018-05-24T22:02:45.723Z,55.70
2018-05-24T22:05:13.391Z,48.27
2018-05-24T22:07:41.012Z,45.00
2018-05-24T22:10:08.726Z,45.27
2018-05-24T22:12:36.492Z,47.73
2018-05-24T22:15:04.090Z,43.47
2018-05-24T22:17:31.676Z,44.77
2018-05-24T22:20:00.100Z,49.60
2018-05-24T22:22:28.152Z,59.57
2018-05-24T22:24:55.750Z,47.87
2018-05-24T22:27:23.361Z,57.63
2018-05-24T22:29:51.032Z,47.57
2018-05-24T22:32:18.695Z,44.03
2018-05-24T22:34:46.288Z,46.43
2018-05-24T22:37:13.938Z,44.67
2018-05-24T22:39:41.631Z,40.57
2018-05-24T22:42:10.051Z,38.83
2018-05-24T22:44:37.707Z,41.13
2018-05-24T22:47:06.133Z,36.20
2018-05-24T22:49:33.737Z,39.03
2018-05-24T22:52:01.477Z,43.00
2018-05-24T22:54:29.860Z,49.37
2018-05-24T22:56:57.566Z,42.83
2018-05-24T22:59:25.220Z,42.57
2018-05-24T23:01:52.821Z,58.93
2018-05-24T23:04:20.440Z,44.23
2018-05-24T23:06:48.060Z,40.20
2018-05-24T23:09:16.396Z,39.40
2018-05-24T23:11:44.048Z,38.03
2018-05-24T23:14:11.652Z,44.60
2018-05-24T23:16:39.941Z,40.87
2018-05-24T23:19:07.524Z,47.07
2018-05-24T23:21:35.236Z,43.30
2018-05-24T23:24:03.639Z,44.90
2018-05-24T23:26:31.391Z,43.00
2018-05-24T23:28:59.732Z,53.50
2018-05-24T23:31:27.326Z,39.50
2018-05-24T23:33:55.727Z,37.63
2018-05-24T23:36:23.416Z,41.93
2018-05-24T23:38:51.031Z,32.90
2018-05-24T23:41:18.609Z,34.77
2018-05-24T23:43:46.400Z,31.17
2018-05-24T23:46:14.070Z,41.07
2018-05-24T23:48:41.731Z,34.37
2018-05-24T23:51:09.414Z,40.23
2018-05-24T23:53:37.079Z,34.50
2018-05-24T23:56:04.728Z,35.60
2018-05-24T23:58:32.496Z,39.17
